Historique des mesures à Cassis (13260), France
Quotidien Résumé Mai 13, 2018 Unités:  Métrique    US   Métrique/US
« Précédent (Jour)
Suivant (Jour) »
Quotidien Hebdomadaire Mensuel Annuel Période au choix
  Maximum: Minimum: Moyenne:
Température: TemperatureC °C 8.7 °C 12.1 °C
Point de rosée: DewpointC °C 5.4 °C 8.5 °C
Humidité: Humidity % 66 % 75 %
Vitesse du vent: 0 km/h 0 km/h 15.9 km/h
Rafales: 0 km/h - -
Vent:- - West
Pression: PressurehPa hPa 1006.7 hPa -
Précipitations: 12.4 mm    
Historical Graphs
 
 
Mesures pour : Mai 13, 2018
Heure Temperature Point de rosée Pression Vent Vitesse du vent Rafales Humidité Pluie (par heure) Conditions
TemperatureC °C DewpointC °C PressurehPa hPa Calm     Humidity % HourlyPrecipMM mm SoftwareType W/m2
00:10 18.5 °C 12.0 °C 1010.4 hPa Calm     66 % 0.0 mm open2300-1.11 W/m2
01:10 18.4 °C 12.4 °C 1010.4 hPa WSW 8.9 km/h 8.9 km/h 68 % 0.0 mm open2300-1.11 W/m2
02:11 17.9 °C 12.8 °C 1010.0 hPa Calm     72 % 0.0 mm open2300-1.11 W/m2
03:11 16.7 °C 12.1 °C 1009.7 hPa Calm   5.6 km/h 74 % 0.0 mm open2300-1.11 W/m2
04:12 15.1 °C 10.7 °C 1009.0 hPa WNW 10.9 km/h 19.6 km/h 75 % 0.0 mm open2300-1.11 W/m2
05:11 14.8 °C 10.8 °C 1008.4 hPa Calm     77 % 0.0 mm open2300-1.11 W/m2
06:11 14.9 °C 10.9 °C 1008.0 hPa SW 10.9 km/h 10.9 km/h 77 % 0.0 mm open2300-1.11 W/m2
07:11 14.8 °C 10.8 °C 1008.0 hPa WNW 4.2 km/h 4.7 km/h 77 % 0.0 mm open2300-1.11 W/m2
08:12 14.7 °C 11.1 °C 1007.3 hPa Calm     79 % 0.0 mm open2300-1.11 W/m2
09:11 15.2 °C 12.0 °C 1007.3 hPa Calm   7.6 km/h 81 % 2.0 mm open2300-1.11 W/m2
10:11 14.4 °C 11.2 °C 1006.7 hPa WNW 18.7 km/h 26.2 km/h 81 % 3.0 mm open2300-1.11 W/m2
11:11 10.1 °C 7.3 °C 1006.7 hPa NW 57.3 km/h 60.3 km/h 83 % 3.6 mm open2300-1.11 W/m2
12:11 10.2 °C 7.8 °C 1007.7 hPa WNW 14 km/h 27.2 km/h 85 % 2.0 mm open2300-1.11 W/m2
13:10 11.2 °C 8.6 °C 1007.0 hPa West 27.2 km/h 27.2 km/h 84 % 1.0 mm open2300-1.11 W/m2
14:10 11.0 °C 8.2 °C 1007.7 hPa West 27.2 km/h 40.7 km/h 83 % 0.0 mm open2300-1.11 W/m2
15:10 10.9 °C 7.6 °C 1008.0 hPa WNW 33.6 km/h 33.6 km/h 80 % 0.0 mm open2300-1.11 W/m2
16:10 9.8 °C 6.5 °C 1008.7 hPa West 15.6 km/h 20.3 km/h 80 % 0.0 mm open2300-1.11 W/m2
17:10 9.2 °C 5.9 °C 1008.7 hPa WSW 34.8 km/h 34.8 km/h 80 % 0.0 mm open2300-1.11 W/m2
18:10 8.9 °C 5.4 °C 1008.0 hPa NNW 27.2 km/h 49.7 km/h 79 % 0.0 mm open2300-1.11 W/m2
19:10 8.9 °C 5.6 °C 1007.3 hPa NNW 9.3 km/h 15 km/h 80 % 0.0 mm open2300-1.11 W/m2
20:10 8.8 °C 5.9 °C 1007.0 hPa West 5.1 km/h 30.7 km/h 82 % 0.0 mm open2300-1.11 W/m2
21:10 8.7 °C 5.8 °C 1006.7 hPa WNW 24.3 km/h 30.7 km/h 82 % 0.5 mm open2300-1.11 W/m2
22:10 9.2 °C 5.7 °C 1006.7 hPa NW 33.6 km/h 44.1 km/h 79 % 0.0 mm open2300-1.11 W/m2
23:10 9.1 °C 5.6 °C 1006.7 hPa North 35.2 km/h 41.2 km/h 79 % 0.0 mm open2300-1.11 W/m2
Observations météo à CASSIS
WU-History script by Weather Underground - 1 mb